Time;durP1;ratioP1;P1;durP2;ratioP2;P2;SDS_P1;SDS_P2;PMS_P1;PMS_P2;Temp;Humidity;BMP_temperature;BMP_pressure;BME280_temperature;BME280_humidity;BME280_pressure;Samples;Min_cycle;Max_cycle;Signal;HPM_P1;HPM_P2
2020/12/11 00:00:47;;;;;;;25.85;16.20;;;;;;;6.81;76.71;96315.72;1768133;81;21620;-74
2020/12/11 00:03:15;;;;;;;25.08;16.30;;;;;;;6.90;76.77;96313.33;1768659;80;21182;-75
2020/12/11 00:05:42;;;;;;;29.20;16.52;;;;;;;6.98;76.67;96312.25;1768024;80;21126;-73
2020/12/11 00:08:10;;;;;;;24.63;15.98;;;;;;;7.05;76.62;96309.98;1768214;81;21193;-74
2020/12/11 00:10:37;;;;;;;24.27;16.70;;;;;;;7.17;76.57;96305.92;1796008;80;21106;-73
2020/12/11 00:13:05;;;;;;;34.33;18.87;;;;;;;7.17;76.57;96305.92;1799868;79;21176;-75
2020/12/11 00:15:32;;;;;;;29.05;18.52;;;;;;;7.19;76.41;96297.44;1799894;80;21168;-75
2020/12/11 00:18:00;;;;;;;29.80;19.00;;;;;;;7.18;76.37;96294.95;1799641;79;21149;-75
2020/12/11 00:20:28;;;;;;;29.67;18.90;;;;;;;7.14;76.23;96302.22;1799609;80;21149;-74
2020/12/11 00:22:56;;;;;;;29.57;20.17;;;;;;;7.08;76.36;96313.20;1799642;80;21311;-74
2020/12/11 00:25:23;;;;;;;36.03;20.60;;;;;;;7.08;76.36;96313.20;1799921;79;21556;-74
2020/12/11 00:27:51;;;;;;;28.87;19.07;;;;;;;7.13;76.86;96313.66;1799665;79;21145;-74
2020/12/11 00:30:18;;;;;;;31.33;19.87;;;;;;;7.13;76.55;96320.20;1799739;80;21322;-78
2020/12/11 00:32:46;;;;;;;35.00;20.00;;;;;;;7.15;76.72;96322.23;1800029;79;21173;-74
2020/12/11 00:35:13;;;;;;;35.03;19.20;;;;;;;7.21;76.89;96317.45;1799568;80;21126;-78
2020/12/11 00:37:43;;;;;;;28.30;18.35;;;;;;;7.24;76.67;96323.77;1799684;80;21551;-73
2020/12/11 00:40:10;;;;;;;27.22;17.40;;;;;;;7.29;76.81;96314.59;1799744;80;21200;-74
2020/12/11 00:42:38;;;;;;;22.45;15.70;;;;;;;7.25;76.71;96307.09;1799637;80;21141;-73
2020/12/11 00:45:05;;;;;;;21.70;14.60;;;;;;;7.29;76.85;96321.14;1799548;80;21323;-73
2020/12/11 00:47:33;;;;;;;22.35;14.85;;;;;;;7.29;76.84;96321.61;1767755;81;21207;-75
2020/12/11 00:50:00;;;;;;;23.22;14.90;;;;;;;7.30;76.82;96324.12;1767748;80;21176;-75
2020/12/11 00:52:29;;;;;;;30.43;16.57;;;;;;;7.37;77.54;96322.32;1768892;80;21149;-79
2020/12/11 00:54:56;;;;;;;27.98;18.50;;;;;;;7.31;76.98;96315.31;1745599;81;21136;-77
2020/12/11 00:57:24;;;;;;;26.80;18.70;;;;;;;7.23;77.00;96316.40;1768963;80;21148;-77
2020/12/11 00:59:51;;;;;;;27.55;18.42;;;;;;;7.25;77.24;96321.52;1769335;80;21137;-79
2020/12/11 01:02:18;;;;;;;26.33;18.90;;;;;;;7.22;76.91;96320.44;1769133;80;21129;-78
2020/12/11 01:04:46;;;;;;;24.63;18.73;;;;;;;7.15;77.22;96318.31;1768913;81;21546;-78
2020/12/11 01:07:13;;;;;;;30.95;20.88;;;;;;;6.97;77.28;96311.89;1769370;80;21129;-78
2020/12/11 01:09:40;;;;;;;27.58;18.75;;;;;;;6.95;77.42;96315.95;1769524;80;21161;-77
2020/12/11 01:12:07;;;;;;;31.95;21.87;;;;;;;6.95;77.42;96315.95;1769043;80;21117;-78
2020/12/11 01:14:35;;;;;;;26.37;20.43;;;;;;;6.86;77.32;96317.48;1769542;80;21137;-79
2020/12/11 01:17:02;;;;;;;29.05;20.20;;;;;;;6.78;77.54;96313.78;1769142;81;21176;-77
2020/12/11 01:19:29;;;;;;;28.25;19.42;;;;;;;6.70;77.57;96307.36;1769164;80;21228;-79
2020/12/11 01:21:57;;;;;;;26.52;19.10;;;;;;;6.61;77.67;96304.14;1769413;81;21144;-77
2020/12/11 01:24:24;;;;;;;26.20;18.65;;;;;;;6.50;77.68;96312.83;1769231;80;21562;-76
2020/12/11 01:26:52;;;;;;;28.23;18.27;;;;;;;6.42;77.68;96307.34;1769290;80;21176;-80
2020/12/11 01:29:19;;;;;;;29.02;20.25;;;;;;;6.28;77.90;96307.55;1769574;80;21141;-78
2020/12/11 01:31:46;;;;;;;24.18;15.78;;;;;;;6.28;77.90;96307.55;1775303;80;21151;-79
2020/12/11 01:34:14;;;;;;;30.43;17.27;;;;;;;6.23;78.22;96307.43;1782440;80;21569;-77
2020/12/11 01:36:43;;;;;;;23.73;16.00;;;;;;;6.20;78.37;96306.34;1766068;81;21157;-76
2020/12/11 01:39:10;;;;;;;28.12;16.60;;;;;;;6.19;78.80;96308.59;1780138;80;21136;-81
2020/12/11 01:41:38;;;;;;;28.40;17.10;;;;;;;6.17;78.81;96311.80;1731311;83;21140;-78
2020/12/11 01:44:12;;;;;;;25.10;18.57;;;;;;;6.16;78.75;96306.69;1799781;80;21171;-80
2020/12/11 01:46:41;;;;;;;27.20;18.70;;;;;;;6.10;78.65;96306.67;1799686;80;21144;-77
2020/12/11 01:49:11;;;;;;;29.48;18.55;;;;;;;6.13;79.20;96302.98;1800001;80;21151;-76
2020/12/11 01:51:39;;;;;;;27.77;17.37;;;;;;;6.15;79.23;96302.41;1799959;80;21176;-77
2020/12/11 01:54:06;;;;;;;29.37;18.20;;;;;;;6.23;80.07;96295.66;1799733;80;21166;-78
2020/12/11 01:56:57;;;;;;;30.15;18.45;;;;;;;6.31;79.71;96287.69;1800121;80;21135;-77
2020/12/11 01:59:42;;;;;;;26.75;16.57;;;;;;;6.28;79.22;96272.20;1800068;80;21221;-78
2020/12/11 02:02:13;;;;;;;24.30;16.45;;;;;;;6.31;79.33;96275.91;1800052;80;21107;-78
2020/12/11 02:04:40;;;;;;;26.50;16.85;;;;;;;6.28;79.20;96265.66;1799668;80;21135;-76
2020/12/11 02:07:08;;;;;;;23.55;16.27;;;;;;;6.32;79.50;96265.80;1799776;80;21139;-75
2020/12/11 02:09:38;;;;;;;22.40;15.20;;;;;;;6.36;79.75;96261.98;1800074;80;21139;-77
2020/12/11 02:12:06;;;;;;;21.73;14.63;;;;;;;6.43;79.83;96256.66;1799768;80;21147;-76
2020/12/11 02:14:34;;;;;;;18.98;13.80;;;;;;;6.43;79.55;96251.42;1799981;80;21580;-77
2020/12/11 02:17:06;;;;;;;21.85;13.83;;;;;;;6.49;79.74;96247.02;1800083;80;21159;-79
2020/12/11 02:19:34;;;;;;;23.83;14.18;;;;;;;6.55;80.20;96239.16;1799963;80;21597;-77
2020/12/11 02:22:06;;;;;;;17.98;12.13;;;;;;;6.54;79.45;96233.56;1800000;80;21620;-76
2020/12/11 02:24:34;;;;;;;21.25;14.07;;;;;;;6.52;79.46;96235.46;1799707;80;21159;-74
2020/12/11 02:27:03;;;;;;;17.52;11.80;;;;;;;6.48;79.75;96237.48;1799964;80;21168;-75
2020/12/11 02:29:30;;;;;;;17.07;11.97;;;;;;;6.52;79.80;96236.77;1799820;80;21595;-78
2020/12/11 02:31:58;;;;;;;16.17;10.00;;;;;;;6.52;79.55;96235.46;1799813;80;21124;-76
2020/12/11 02:34:26;;;;;;;20.30;11.73;;;;;;;6.57;79.49;96235.95;1799942;80;21611;-79
2020/12/11 02:37:01;;;;;;;17.90;11.35;;;;;;;6.59;79.66;96231.41;1800093;80;21136;-74
2020/12/11 02:39:29;;;;;;;15.80;11.48;;;;;;;6.62;79.93;96233.80;1799914;80;21163;-80
2020/12/11 02:41:57;;;;;;;13.00;9.63;;;;;;;6.69;79.90;96237.59;1799946;80;21132;-79
2020/12/11 02:44:24;;;;;;;15.55;10.18;;;;;;;6.66;79.64;96237.00;1799869;80;21636;-82
2020/12/11 02:46:52;;;;;;;16.67;10.68;;;;;;;6.52;80.01;96236.31;1799721;80;21139;-76
2020/12/11 02:49:20;;;;;;;17.20;10.80;;;;;;;6.47;79.61;96235.82;1800382;80;21167;-79
2020/12/11 02:51:47;;;;;;;16.50;10.88;;;;;;;6.51;80.13;96234.64;1800053;80;21163;-78
2020/12/11 02:54:15;;;;;;;16.40;12.03;;;;;;;6.62;80.36;96236.41;1799876;80;21155;-80
2020/12/11 02:56:42;;;;;;;16.42;11.22;;;;;;;6.83;80.27;96236.51;1800175;80;21163;-78
2020/12/11 02:59:09;;;;;;;14.60;10.58;;;;;;;6.83;80.27;96236.51;1799965;80;21522;-82
2020/12/11 03:01:57;;;;;;;13.78;10.23;;;;;;;6.89;80.09;96243.05;1799834;80;21147;-79
2020/12/11 03:04:25;;;;;;;14.35;10.13;;;;;;;6.93;80.18;96246.27;1769320;80;21104;-80
2020/12/11 03:06:53;;;;;;;16.67;10.43;;;;;;;6.97;79.72;96240.66;1799943;80;21522;-80
2020/12/11 03:09:20;;;;;;;16.20;10.82;;;;;;;6.97;79.77;96242.45;1800113;80;21575;-78
2020/12/11 03:11:48;;;;;;;14.13;10.70;;;;;;;6.95;79.59;96249.14;1799789;80;21178;-77
2020/12/11 03:14:16;;;;;;;16.37;10.30;;;;;;;6.89;79.65;96245.67;1799829;80;21139;-76
2020/12/11 03:16:43;;;;;;;18.32;10.38;;;;;;;6.93;79.83;96239.71;1800162;80;21135;-76
2020/12/11 03:19:10;;;;;;;13.83;9.18;;;;;;;6.98;80.03;96241.51;1799882;80;21150;-77
2020/12/11 03:21:38;;;;;;;12.47;9.15;;;;;;;6.99;79.91;96235.31;1769036;80;21147;-77
2020/12/11 03:24:05;;;;;;;12.88;9.08;;;;;;;6.92;79.70;96244.13;1799732;80;21159;-76
2020/12/11 03:26:32;;;;;;;9.70;7.30;;;;;;;6.88;79.55;96243.55;1800140;80;21154;-75
2020/12/11 03:29:00;;;;;;;10.23;7.72;;;;;;;6.87;79.64;96245.80;1799940;80;21201;-76
2020/12/11 03:31:28;;;;;;;10.75;8.10;;;;;;;6.85;79.67;96242.47;1797720;80;21525;-77
2020/12/11 03:33:56;;;;;;;10.75;7.90;;;;;;;6.87;79.85;96241.02;1780116;80;21136;-76
2020/12/11 03:36:23;;;;;;;11.50;8.68;;;;;;;6.96;79.92;96234.23;1779871;80;21141;-76
2020/12/11 03:38:50;;;;;;;10.28;7.60;;;;;;;6.97;79.70;96236.73;1779765;80;21136;-77
2020/12/11 03:41:19;;;;;;;11.35;7.30;;;;;;;6.98;79.53;96240.20;1784027;80;21160;-77
2020/12/11 03:43:46;;;;;;;10.55;7.50;;;;;;;6.93;79.70;96241.88;1785023;80;21170;-77
2020/12/11 03:46:24;;;;;;;9.13;6.67;;;;;;;6.91;79.64;96234.60;1785391;80;21132;-75
2020/12/11 03:48:52;;;;;;;13.05;7.05;;;;;;;6.92;79.62;96236.73;1785186;80;21164;-75
2020/12/11 03:51:21;;;;;;;7.83;6.30;;;;;;;6.94;79.88;96234.38;1785017;80;21181;-77
2020/12/11 03:53:50;;;;;;;14.73;7.08;;;;;;;6.95;79.71;96241.73;1754759;80;21140;-76
2020/12/11 03:56:19;;;;;;;9.38;6.80;;;;;;;6.98;79.87;96232.34;1785233;80;21171;-75
2020/12/11 03:58:47;;;;;;;8.93;6.58;;;;;;;7.07;80.17;96229.44;1785118;80;21132;-77
2020/12/11 04:01:15;;;;;;;8.98;6.97;;;;;;;7.05;79.89;96226.14;1783927;80;21160;-79
2020/12/11 04:03:43;;;;;;;7.97;6.03;;;;;;;7.05;79.89;96226.14;1741631;82;21612;-79
2020/12/11 04:06:14;;;;;;;8.35;6.47;;;;;;;6.95;79.99;96219.47;1782113;80;21142;-79
2020/12/11 04:08:43;;;;;;;6.80;5.65;;;;;;;6.93;79.91;96219.60;1785038;80;21177;-77
2020/12/11 04:11:13;;;;;;;7.65;6.42;;;;;;;6.94;79.87;96221.73;1785046;80;21154;-79
2020/12/11 04:13:41;;;;;;;7.87;5.58;;;;;;;6.96;80.01;96218.52;1785166;80;21546;-75
2020/12/11 04:16:11;;;;;;;9.10;6.12;;;;;;;7.03;79.93;96211.36;1786444;80;21145;-78
2020/12/11 04:18:39;;;;;;;8.80;6.22;;;;;;;7.09;80.01;96218.37;1750261;82;21121;-79
2020/12/11 04:21:13;;;;;;;8.68;6.92;;;;;;;7.16;80.15;96219.53;1727421;82;21158;-78
2020/12/11 04:23:42;;;;;;;6.75;5.78;;;;;;;7.19;79.89;96214.88;1795558;80;21549;-76
2020/12/11 04:26:11;;;;;;;8.45;6.42;;;;;;;7.14;80.13;96213.11;1799607;79;21132;-79
2020/12/11 04:28:38;;;;;;;8.03;6.80;;;;;;;7.16;79.68;96217.77;1812636;79;21148;-77
2020/12/11 04:31:06;;;;;;;7.33;5.70;;;;;;;7.16;79.68;96217.77;1812624;79;21156;-83
2020/12/11 04:33:33;;;;;;;8.55;7.05;;;;;;;7.23;80.19;96215.48;1794530;79;21150;-76
2020/12/11 04:36:01;;;;;;;9.38;6.15;;;;;;;7.21;80.00;96200.35;1789491;80;21547;-77
2020/12/11 04:38:29;;;;;;;7.67;6.17;;;;;;;7.29;79.96;96214.98;1789515;80;21503;-77
2020/12/11 04:41:02;;;;;;;8.50;5.97;;;;;;;7.32;79.89;96208.64;1789792;80;21134;-76
2020/12/11 04:43:29;;;;;;;7.30;5.85;;;;;;;7.31;80.17;96205.67;1789337;80;21145;-77
2020/12/11 04:45:57;;;;;;;7.08;5.50;;;;;;;7.24;79.70;96209.75;1789108;80;21690;-76
2020/12/11 04:48:25;;;;;;;7.83;6.10;;;;;;;7.14;79.62;96213.61;1778087;80;21218;-78
2020/12/11 04:50:55;;;;;;;6.55;5.25;;;;;;;7.10;79.53;96219.55;1740751;81;21173;-78
2020/12/11 04:53:25;;;;;;;7.28;5.78;;;;;;;7.15;79.89;96217.41;1744145;82;21180;-76
2020/12/11 04:55:56;;;;;;;6.30;5.25;;;;;;;7.15;79.89;96217.41;1743492;82;21177;-77
2020/12/11 04:58:26;;;;;;;6.12;5.05;;;;;;;7.19;79.88;96225.36;1721016;82;21134;-78
2020/12/11 05:00:55;;;;;;;5.92;4.97;;;;;;;7.23;79.76;96219.87;1745253;81;21138;-76
2020/12/11 05:03:23;;;;;;;7.75;6.20;;;;;;;7.23;79.67;96221.19;1747598;81;21100;-75
2020/12/11 05:05:51;;;;;;;8.68;5.33;;;;;;;7.26;79.83;96213.09;1770520;80;21653;-77
2020/12/11 05:08:21;;;;;;;5.87;5.10;;;;;;;7.26;79.83;96213.09;1772102;80;21511;-77
2020/12/11 05:10:48;;;;;;;6.53;5.62;;;;;;;7.30;79.85;96211.40;1757816;80;21164;-79
2020/12/11 05:13:23;;;;;;;7.47;5.47;;;;;;;7.31;79.73;96210.45;1783585;80;21140;-79
2020/12/11 05:16:11;;;;;;;8.25;5.95;;;;;;;7.28;79.64;96207.25;1775960;79;21141;-75
2020/12/11 05:18:40;;;;;;;8.33;6.17;;;;;;;7.29;79.70;96212.81;1773284;80;21125;-79
2020/12/11 05:21:26;;;;;;;10.80;6.72;;;;;;;7.29;79.82;96211.05;1743354;82;21098;-81
2020/12/11 05:24:06;;;;;;;8.65;6.62;;;;;;;7.29;79.78;96215.44;1744580;80;21156;-79
2020/12/11 05:26:36;;;;;;;9.18;6.70;;;;;;;7.28;79.84;96213.30;1749372;80;21594;-79
2020/12/11 05:29:05;;;;;;;10.58;6.92;;;;;;;7.32;79.89;96217.82;1764929;81;21200;-78
2020/12/11 05:31:34;;;;;;;10.65;6.65;;;;;;;7.37;79.87;96217.45;1775230;80;21129;-75
2020/12/11 05:34:06;;;;;;;8.23;6.17;;;;;;;7.36;79.74;96211.38;1766404;81;21191;-76
2020/12/11 05:36:54;;;;;;;9.48;7.03;;;;;;;7.38;79.83;96216.49;1734524;81;21089;-76
2020/12/11 05:39:32;;;;;;;8.10;6.70;;;;;;;7.22;79.45;96212.50;1795564;79;21522;-75
2020/12/11 05:42:03;;;;;;;10.08;6.60;;;;;;;7.12;79.69;96208.47;1788112;79;21137;-74
2020/12/11 05:44:33;;;;;;;8.20;6.55;;;;;;;7.16;79.73;96217.77;1788475;79;21097;-75
2020/12/11 05:47:23;;;;;;;8.88;7.00;;;;;;;7.13;79.72;96216.69;1786515;79;21172;-74
2020/12/11 05:49:51;;;;;;;8.48;6.53;;;;;;;7.13;79.88;96218.00;1782570;79;21161;-76
2020/12/11 05:52:24;;;;;;;10.03;6.53;;;;;;;7.18;79.98;96219.78;1786947;79;21185;-75
2020/12/11 05:54:55;;;;;;;9.25;6.40;;;;;;;7.17;79.59;96223.36;1746244;82;21193;-74
2020/12/11 05:57:23;;;;;;;10.55;7.03;;;;;;;7.30;80.27;96231.52;1806312;79;21140;-77
2020/12/11 05:59:52;;;;;;;10.18;6.67;;;;;;;7.30;80.27;96231.52;1803184;79;21183;-77
2020/12/11 06:02:20;;;;;;;8.65;6.20;;;;;;;7.35;80.40;96234.63;1813574;79;21144;-75
2020/12/11 06:04:48;;;;;;;7.15;6.15;;;;;;;7.38;80.09;96238.78;1813941;79;21330;-75
2020/12/11 06:07:16;;;;;;;9.60;6.17;;;;;;;7.41;79.81;96234.61;1792800;79;21155;-75
2020/12/11 06:09:44;;;;;;;9.65;6.37;;;;;;;7.42;79.91;96237.59;1807613;79;21172;-75
2020/12/11 06:12:12;;;;;;;7.53;5.85;;;;;;;7.45;80.00;96233.38;1809042;79;21163;-81
2020/12/11 06:15:09;;;;;;;8.33;6.15;;;;;;;7.39;79.46;96237.33;1802754;79;21137;-77
2020/12/11 06:17:44;;;;;;;7.08;5.50;;;;;;;7.40;79.69;96235.07;1771276;79;21154;-76
2020/12/11 06:20:14;;;;;;;9.43;5.40;;;;;;;7.38;79.48;96244.84;1798518;79;21160;-75
2020/12/11 06:22:45;;;;;;;9.13;5.47;;;;;;;7.36;79.62;96234.98;1801648;79;21399;-76
2020/12/11 06:25:28;;;;;;;7.22;4.92;;;;;;;7.32;79.62;96236.17;1806344;79;21589;-76
2020/12/11 06:27:59;;;;;;;6.03;4.87;;;;;;;7.30;79.84;96243.32;1798575;79;21168;-76
2020/12/11 06:30:31;;;;;;;7.05;5.42;;;;;;;7.30;79.84;96243.32;1782940;79;21109;-74
2020/12/11 06:33:00;;;;;;;7.15;4.90;;;;;;;7.23;79.53;96232.52;1803876;79;21183;-76
2020/12/11 06:35:28;;;;;;;5.78;4.72;;;;;;;7.27;79.72;96243.59;1780062;79;21160;-75
2020/12/11 06:37:56;;;;;;;6.55;5.35;;;;;;;7.32;80.02;96247.97;1807956;79;21124;-76
2020/12/11 06:40:48;;;;;;;7.53;5.08;;;;;;;7.41;80.04;96254.27;1769840;80;21141;-77
2020/12/11 06:43:45;;;;;;;6.85;4.80;;;;;;;7.41;80.04;96254.27;1749834;80;21158;-77
2020/12/11 06:46:21;;;;;;;7.80;5.80;;;;;;;7.36;79.81;96253.33;1741220;82;21155;-77
2020/12/11 06:49:13;;;;;;;6.30;4.87;;;;;;;7.36;79.92;96249.40;1792139;79;21829;-76
2020/12/11 06:51:52;;;;;;;6.78;4.78;;;;;;;7.40;79.94;96247.36;1777331;80;21133;-76
2020/12/11 06:54:29;;;;;;;7.42;4.72;;;;;;;7.37;79.85;96247.14;1786054;79;21522;-77
2020/12/11 06:57:00;;;;;;;5.80;4.60;;;;;;;7.38;80.13;96245.33;1777747;79;21188;-76
2020/12/11 06:59:33;;;;;;;6.30;4.78;;;;;;;7.40;79.89;96242.94;1799492;79;21137;-76
2020/12/11 07:02:14;;;;;;;7.50;4.80;;;;;;;7.31;79.48;96248.46;1789050;79;21546;-82
2020/12/11 07:04:43;;;;;;;6.72;4.70;;;;;;;7.32;80.10;96248.81;1781502;79;21113;-76
2020/12/11 07:07:11;;;;;;;9.70;4.70;;;;;;;7.37;80.06;96249.76;1785961;79;21145;-77
2020/12/11 07:09:52;;;;;;;4.92;3.98;;;;;;;7.31;80.18;96246.30;1784077;80;21144;-75
2020/12/11 07:15:15;;;;;;;6.75;5.12;;;;;;;7.38;80.04;96258.44;1801970;79;24758;-77
2020/12/11 07:17:45;;;;;;;7.55;5.75;;;;;;;7.32;80.16;96263.23;1805332;78;21138;-79
2020/12/11 07:20:13;;;;;;;7.17;5.62;;;;;;;7.27;80.20;96262.75;1826464;78;21406;-77
2020/12/11 07:22:59;;;;;;;6.65;4.72;;;;;;;7.28;80.07;96256.56;1778059;79;24895;-75
2020/12/11 07:25:28;;;;;;;8.93;4.87;;;;;;;7.16;80.18;96260.16;1743885;82;21141;-76
2020/12/11 07:28:03;;;;;;;6.45;4.92;;;;;;;7.16;80.18;96260.16;1743965;82;21144;-77
2020/12/11 07:30:30;;;;;;;7.00;5.65;;;;;;;7.07;80.14;96259.12;1750006;82;21180;-75
2020/12/11 07:32:58;;;;;;;8.98;4.90;;;;;;;7.07;80.14;96259.12;1750912;81;21129;-76
2020/12/11 07:35:25;;;;;;;5.85;5.00;;;;;;;7.01;80.12;96259.58;1746130;81;21187;-76
2020/12/11 07:37:56;;;;;;;5.65;4.50;;;;;;;6.93;80.10;96263.29;1744932;82;21120;-76
2020/12/11 07:40:25;;;;;;;7.90;5.15;;;;;;;6.85;80.36;96268.66;1740909;82;21152;-75
2020/12/11 07:42:53;;;;;;;6.25;4.58;;;;;;;6.82;80.33;96266.77;1730499;82;21167;-79
2020/12/11 07:45:36;;;;;;;4.80;3.60;;;;;;;6.75;80.51;96258.55;1678667;85;21592;-79
2020/12/11 07:48:03;;;;;;;13.43;4.20;;;;;;;6.68;80.19;96262.11;1684258;85;21657;-77
2020/12/11 07:50:31;;;;;;;5.37;4.17;;;;;;;6.62;80.32;96257.36;1672887;85;21640;-75
2020/12/11 07:53:01;;;;;;;4.97;4.10;;;;;;;6.63;80.45;96268.20;1696364;84;21537;-81
2020/12/11 07:55:30;;;;;;;5.37;4.10;;;;;;;6.67;80.70;96272.27;1690742;84;21168;-74
2020/12/11 07:57:58;;;;;;;4.33;3.70;;;;;;;6.74;80.97;96267.36;1688411;84;21188;-75
2020/12/11 08:00:26;;;;;;;5.00;4.10;;;;;;;6.77;80.81;96270.23;1692568;83;21174;-75
2020/12/11 08:03:05;;;;;;;5.75;3.77;;;;;;;6.84;80.94;96267.48;1702114;84;22188;-77
2020/12/11 08:05:28;;;;;;;6.90;4.78;;;;;;;6.91;81.04;96258.19;1701776;84;21661;-76
2020/12/11 08:07:56;;;;;;;5.10;3.92;;;;;;;6.96;80.84;96249.95;1691511;84;21219;-75
2020/12/11 08:10:29;;;;;;;6.53;4.75;;;;;;;7.05;81.21;96238.75;1691243;84;21135;-75
2020/12/11 08:13:07;;;;;;;4.12;3.72;;;;;;;7.10;80.82;96256.23;1730554;82;21175;-76
2020/12/11 08:15:36;;;;;;;4.83;3.90;;;;;;;7.16;81.01;96258.38;1747405;82;21585;-76
2020/12/11 08:18:22;;;;;;;6.35;3.90;;;;;;;7.17;80.72;96253.50;1729870;82;21132;-76
2020/12/11 08:20:53;;;;;;;;;;;;;;;7.25;80.92;96257.29;1721913;82;21843;-80
2020/12/11 08:23:44;;;;;;;3.92;3.40;;;;;;;7.30;80.22;96260.36;1705335;84;20173;-79
2020/12/11 08:26:18;;;;;;;5.62;3.50;;;;;;;7.29;80.20;96260.85;1706865;83;21185;-77
2020/12/11 08:29:06;;;;;;;6.95;3.70;;;;;;;7.39;80.52;96260.93;1724124;83;21208;-75
2020/12/11 08:31:42;;;;;;;4.17;3.33;;;;;;;7.44;80.30;96267.97;1720287;82;21669;-80
2020/12/11 08:34:14;;;;;;;4.55;3.60;;;;;;;7.63;80.26;96256.80;1713509;82;21148;-79
2020/12/11 08:36:46;;;;;;;5.37;3.50;;;;;;;7.63;80.26;96256.80;1713497;82;21644;-78
2020/12/11 08:39:26;;;;;;;5.83;3.15;;;;;;;7.70;80.23;96255.82;1711311;82;21140;-79
2020/12/11 08:42:16;;;;;;;5.12;3.00;;;;;;;7.72;80.01;96255.69;1710367;83;21172;-78
2020/12/11 08:47:40;;;;;;;4.67;3.27;;;;;;;7.76;80.31;96252.68;1734834;82;21137;-84
2020/12/11 08:50:12;;;;;;;3.70;3.00;;;;;;;7.76;79.88;96251.37;1727898;82;21162;-83
2020/12/11 08:52:36;;;;;;;5.10;3.10;;;;;;;7.86;79.81;96255.39;1708490;82;21133;-80
2020/12/11 08:55:06;;;;;;;3.65;3.00;;;;;;;7.86;79.81;96255.39;1655256;86;21609;-78
2020/12/11 08:57:34;;;;;;;4.03;2.85;;;;;;;7.91;79.74;96261.58;1710711;82;21675;-78
2020/12/11 09:00:01;;;;;;;3.98;3.05;;;;;;;7.88;79.53;96253.48;1717150;82;21191;-79
2020/12/11 09:02:30;;;;;;;4.92;3.85;;;;;;;7.96;79.60;96256.77;1709546;83;21180;-77
2020/12/11 09:04:57;;;;;;;3.60;2.90;;;;;;;7.94;79.54;96248.17;1709659;82;21172;-77
2020/12/11 09:07:28;;;;;;;5.47;3.30;;;;;;;7.94;79.38;96253.42;1718496;82;21204;-75
2020/12/11 09:09:55;;;;;;;4.47;3.47;;;;;;;7.96;79.35;96247.12;1728156;81;21160;-76
2020/12/11 09:12:23;;;;;;;5.75;3.90;;;;;;;7.96;79.35;96247.12;1714843;82;21168;-77
2020/12/11 09:14:50;;;;;;;4.83;3.77;;;;;;;7.93;79.06;96243.92;1723583;82;21134;-79
2020/12/11 09:17:18;;;;;;;5.33;4.08;;;;;;;7.93;79.13;96250.48;1734771;82;21105;-81
2020/12/11 09:19:45;;;;;;;3.92;3.40;;;;;;;7.89;79.03;96250.37;1720117;82;21680;-79
2020/12/11 09:22:13;;;;;;;4.17;3.70;;;;;;;7.87;78.91;96250.97;1718140;82;21168;-79
2020/12/11 09:24:40;;;;;;;4.90;4.20;;;;;;;7.81;78.76;96241.34;1737105;81;21318;-79
2020/12/11 09:27:11;;;;;;;5.17;4.30;;;;;;;7.74;79.06;96233.64;1714186;82;21144;-78
2020/12/11 09:29:40;;;;;;;5.03;4.12;;;;;;;7.78;79.12;96241.59;1715464;82;21144;-78
2020/12/11 09:32:07;;;;;;;5.00;3.75;;;;;;;7.76;79.22;96242.68;1716146;82;21594;-79
2020/12/11 09:34:35;;;;;;;5.33;4.03;;;;;;;7.56;79.23;96239.91;1735211;82;21247;-77
2020/12/11 09:37:03;;;;;;;5.85;3.70;;;;;;;7.45;78.83;96239.48;1726854;81;21620;-80
2020/12/11 09:39:33;;;;;;;4.45;3.40;;;;;;;7.40;79.08;96232.45;1726088;82;21153;-79
2020/12/11 09:44:54;;;;;;;4.95;3.87;;;;;;;7.48;79.42;96235.77;1778762;79;24749;-77
2020/12/11 09:52:56;;;;;;;9.43;3.98;;;;;;;7.60;79.67;96233.92;1819914;77;24744;-78
2020/12/11 09:55:16;;;;;;;4.50;3.77;;;;;;;7.58;80.05;96235.83;1819388;77;21210;-79
2020/12/11 09:57:44;;;;;;;5.15;4.12;;;;;;;7.66;80.15;96241.28;1822671;78;21133;-83
2020/12/11 10:00:11;;;;;;;6.10;4.00;;;;;;;7.70;80.18;96237.45;1818289;78;21190;-80
2020/12/11 10:05:16;;;;;;;9.18;4.50;;;;;;;7.67;80.07;96232.45;1805634;79;21135;-83
2020/12/11 10:07:43;;;;;;;7.08;4.30;;;;;;;7.75;80.35;96225.27;1767568;80;21142;-82
2020/12/11 10:10:10;;;;;;;5.90;4.50;;;;;;;7.86;80.54;96222.59;1796764;79;21147;-85
2020/12/11 10:12:38;;;;;;;10.58;4.70;;;;;;;7.95;80.38;96220.98;1750732;79;21155;-84
2020/12/11 10:15:08;;;;;;;5.33;4.50;;;;;;;8.01;80.45;96211.30;1766935;80;21136;-90
2020/12/11 10:17:35;;;;;;;5.55;4.30;;;;;;;8.14;80.29;96213.72;1768822;79;21133;-83
2020/12/11 10:20:04;;;;;;;7.60;4.40;;;;;;;8.20;80.21;96211.88;1791189;79;21139;-84
2020/12/11 10:22:32;;;;;;;7.08;4.20;;;;;;;8.26;79.71;96212.66;1796870;79;21536;-84
2020/12/11 10:25:00;;;;;;;6.75;3.80;;;;;;;8.32;79.95;96211.30;1772875;80;21129;-81
2020/12/11 10:27:27;;;;;;;4.95;4.12;;;;;;;8.24;79.51;96211.13;1774389;79;21722;-85
2020/12/11 10:29:57;;;;;;;5.53;4.05;;;;;;;8.20;79.60;96208.44;1764122;80;21149;-88
2020/12/11 10:32:24;;;;;;;6.97;4.47;;;;;;;8.25;79.70;96207.09;1760785;81;21177;-86
2020/12/11 10:34:51;;;;;;;7.67;5.95;;;;;;;8.31;79.47;96204.88;1755998;80;21139;-86
2020/12/11 10:37:19;;;;;;;5.37;4.08;;;;;;;8.31;79.49;96204.88;1753830;81;21153;-83
2020/12/11 10:39:46;;;;;;;5.78;4.72;;;;;;;8.36;79.33;96204.84;1745268;80;21497;-86
2020/12/11 10:42:13;;;;;;;5.87;4.42;;;;;;;8.39;79.37;96202.44;1768835;81;21612;-84
2020/12/11 10:44:41;;;;;;;5.15;4.28;;;;;;;8.38;79.15;96200.77;1776415;80;21313;-82
2020/12/11 10:47:09;;;;;;;5.75;4.28;;;;;;;8.40;79.26;96203.60;1790819;80;21628;-82
2020/12/11 10:49:36;;;;;;;6.00;4.33;;;;;;;8.36;79.56;96192.18;1791457;80;21191;-82
2020/12/11 10:52:04;;;;;;;5.47;3.55;;;;;;;8.41;80.02;96190.83;1737210;81;21140;-83
2020/12/11 10:54:31;;;;;;;3.80;3.25;;;;;;;8.39;80.36;96191.46;1732814;82;21144;-82
2020/12/11 10:56:58;;;;;;;6.85;3.87;;;;;;;8.37;80.56;96185.50;1745616;82;21188;-83
2020/12/11 10:59:26;;;;;;;6.22;4.10;;;;;;;8.31;79.91;96182.08;1753898;82;22173;-81
2020/12/11 11:01:53;;;;;;;4.97;3.67;;;;;;;8.33;79.84;96172.28;1740943;80;21186;-79
2020/12/11 11:04:21;;;;;;;7.05;4.08;;;;;;;8.40;80.09;96181.28;1709322;82;21159;-81
2020/12/11 11:07:05;;;;;;;7.10;3.87;;;;;;;8.47;80.29;96176.83;1751845;80;21621;-86
2020/12/11 11:12:32;;;;;;;5.22;4.20;;;;;;;8.65;79.43;96162.59;1813646;79;24878;-79
2020/12/11 11:26:10;;;;;;;9.23;5.67;;;;;;;8.34;78.86;96168.69;1804948;78;21120;-79
2020/12/11 11:28:32;;;;;;;6.85;5.42;;;;;;;8.29;79.08;96161.70;1796319;80;21163;-87
2020/12/11 11:30:59;;;;;;;9.33;5.22;;;;;;;8.24;79.13;96162.56;1798938;78;21100;-85
2020/12/11 11:33:27;;;;;;;8.83;5.10;;;;;;;8.13;79.00;96168.25;1796270;78;21249;-84
2020/12/11 11:35:54;;;;;;;10.63;5.87;;;;;;;8.03;79.26;96163.92;1798810;80;21555;-87
2020/12/11 11:38:21;;;;;;;9.83;6.30;;;;;;;7.91;79.69;96165.30;1801245;78;21853;-86
2020/12/11 11:40:52;;;;;;;11.55;7.12;;;;;;;7.91;79.69;96165.30;1798307;78;21139;-81
2020/12/11 11:43:36;;;;;;;9.40;7.60;;;;;;;7.81;79.25;96165.27;1796148;78;21185;-83
2020/12/11 11:45:53;;;;;;;10.55;7.58;;;;;;;7.70;79.92;96167.95;1731567;81;21178;-88
2020/12/11 11:48:21;;;;;;;10.95;6.95;;;;;;;7.70;79.92;96167.95;1748630;81;21140;-82
2020/12/11 11:50:58;;;;;;;15.93;6.65;;;;;;;7.65;79.98;96168.33;1742560;81;21212;-83
2020/12/11 11:53:22;;;;;;;10.03;6.83;;;;;;;7.64;80.11;96167.16;1738780;81;21136;-83
2020/12/11 11:55:51;;;;;;;9.63;6.47;;;;;;;7.59;80.02;96174.09;1747981;81;21167;-80
2020/12/11 11:58:20;;;;;;;8.90;6.25;;;;;;;7.60;80.14;96165.27;1754685;81;21163;-84
2020/12/11 12:00:49;;;;;;;9.45;6.10;;;;;;;7.63;80.24;96172.05;1733559;81;21126;-80
2020/12/11 12:03:16;;;;;;;7.50;6.08;;;;;;;7.64;80.79;96165.34;1739446;81;21608;-81
2020/12/11 12:05:45;;;;;;;9.98;6.30;;;;;;;7.71;80.70;96168.30;1741546;81;21171;-77
2020/12/11 12:08:14;;;;;;;9.33;6.28;;;;;;;7.76;80.83;96170.54;1758598;81;21566;-80
2020/12/11 12:10:41;;;;;;;9.08;6.00;;;;;;;7.76;80.91;96170.05;1763279;81;21613;-77
2020/12/11 12:13:08;;;;;;;12.33;8.35;;;;;;;7.72;80.95;96168.66;1741067;82;21158;-80
2020/12/11 12:15:36;;;;;;;9.05;7.00;;;;;;;7.75;80.95;96164.44;1710234;82;21190;-77
2020/12/11 12:18:07;;;;;;;10.50;7.37;;;;;;;7.81;81.10;96166.57;1704180;83;21196;-87
2020/12/11 12:20:51;;;;;;;12.47;6.95;;;;;;;7.87;81.23;96165.23;1700574;83;21211;-77